Time;durP1;ratioP1;P1;durP2;ratioP2;P2;SDS_P1;SDS_P2;PMS_P1;PMS_P2;Temp;Humidity;BMP_temperature;BMP_pressure;BME280_temperature;BME280_humidity;BME280_pressure;Samples;Min_cycle;Max_cycle;Signal;HPM_P1;HPM_P2
2022/03/21 00:01:13;;;;;;;23.33;16.00;;;;;;;;;;5051494;28;20223;-68
2022/03/21 00:04:17;;;;;;;27.80;16.45;;;;;;;;;;5051330;28;20507;-68
2022/03/21 00:07:21;;;;;;;22.70;14.48;;;;;;;;;;5051293;28;20044;-68
2022/03/21 00:10:26;;;;;;;25.58;14.75;;;;;;;;;;5050959;28;20059;-68
2022/03/21 00:13:31;;;;;;;15.38;10.30;;;;;;;;;;5050533;28;20043;-67
2022/03/21 00:16:37;;;;;;;17.48;11.45;;;;;;;;;;5049929;28;20399;-67
2022/03/21 00:19:41;;;;;;;18.25;8.23;;;;;;;;;;5050865;28;20510;-67
2022/03/21 00:22:45;;;;;;;11.98;7.68;;;;;;;;;;5050930;28;20400;-69
2022/03/21 00:25:49;;;;;;;13.13;8.35;;;;;;;;;;5050550;28;20060;-68
2022/03/21 00:28:54;;;;;;;17.50;8.13;;;;;;;;;;5050853;28;20441;-68
2022/03/21 00:31:58;;;;;;;12.15;7.55;;;;;;;;;;5050827;28;20056;-68
2022/03/21 00:35:04;;;;;;;12.73;8.75;;;;;;;;;;5050085;28;20040;-68
2022/03/21 00:38:12;;;;;;;11.18;8.18;;;;;;;;;;5050968;28;20048;-68
2022/03/21 00:41:16;;;;;;;12.05;8.35;;;;;;;;;;5050677;28;20048;-68
2022/03/21 00:44:21;;;;;;;17.33;9.43;;;;;;;;;;5050826;28;20056;-68
2022/03/21 00:47:25;;;;;;;13.52;9.63;;;;;;;;;;5050552;28;20040;-68
2022/03/21 00:50:30;;;;;;;15.35;9.02;;;;;;;;;;5051037;28;20381;-68
2022/03/21 00:53:34;;;;;;;13.60;10.05;;;;;;;;;;5050806;28;20052;-68
2022/03/21 00:56:38;;;;;;;12.98;8.90;;;;;;;;;;5050636;28;20040;-68
2022/03/21 00:59:43;;;;;;;12.02;8.48;;;;;;;;;;5050594;28;20055;-68
2022/03/21 01:02:48;;;;;;;13.57;8.70;;;;;;;;;;5049871;28;20531;-68
2022/03/21 01:05:52;;;;;;;12.73;8.80;;;;;;;;;;5049672;28;20056;-68
2022/03/21 01:08:56;;;;;;;12.75;8.55;;;;;;;;;;5050559;28;20071;-68
2022/03/21 01:12:03;;;;;;;15.02;9.05;;;;;;;;;;5050587;28;20052;-68
2022/03/21 01:15:08;;;;;;;12.10;8.45;;;;;;;;;;5050219;28;20068;-68
2022/03/21 01:18:12;;;;;;;16.92;7.75;;;;;;;;;;5050556;28;20048;-68
2022/03/21 01:21:16;;;;;;;14.02;8.10;;;;;;;;;;5050488;28;20048;-68
2022/03/21 01:24:21;;;;;;;13.00;8.73;;;;;;;;;;5050143;28;20068;-68
2022/03/21 01:27:25;;;;;;;15.07;8.00;;;;;;;;;;5050536;28;20048;-68
2022/03/21 01:30:29;;;;;;;11.38;8.40;;;;;;;;;;5053235;28;20056;-68
2022/03/21 01:33:35;;;;;;;15.32;7.53;;;;;;;;;;5054090;28;20067;-68
2022/03/21 01:36:39;;;;;;;10.82;7.18;;;;;;;;;;5053372;28;20045;-68
2022/03/21 01:39:43;;;;;;;14.90;8.27;;;;;;;;;;5054073;28;20040;-68
2022/03/21 01:42:48;;;;;;;11.30;7.70;;;;;;;;;;5054490;28;20303;-68
2022/03/21 01:45:52;;;;;;;13.20;7.90;;;;;;;;;;5053893;28;20048;-68
2022/03/21 01:48:57;;;;;;;10.98;6.95;;;;;;;;;;5053757;28;20040;-68
2022/03/21 01:52:02;;;;;;;10.80;7.20;;;;;;;;;;5053414;28;20144;-68
2022/03/21 01:58:30;;;;;;;11.15;7.25;;;;;;;;;;5053828;28;20051;-68
2022/03/21 02:01:34;;;;;;;11.15;7.43;;;;;;;;;;5053537;28;20052;-68
2022/03/21 02:04:39;;;;;;;9.55;7.18;;;;;;;;;;5053318;28;20056;-68
2022/03/21 02:07:44;;;;;;;12.15;7.70;;;;;;;;;;5052749;28;20033;-68
2022/03/21 02:10:50;;;;;;;12.27;7.32;;;;;;;;;;5053369;28;20044;-68
2022/03/21 02:13:56;;;;;;;13.07;6.40;;;;;;;;;;5053483;28;20040;-68
2022/03/21 02:17:00;;;;;;;13.27;7.00;;;;;;;;;;5053490;28;20064;-68
2022/03/21 02:20:05;;;;;;;9.38;6.15;;;;;;;;;;5053343;28;20044;-68
2022/03/21 02:23:45;;;;;;;17.13;6.78;;;;;;;;;;5053425;28;20136;-68
2022/03/21 02:26:50;;;;;;;9.75;6.47;;;;;;;;;;5050736;28;20140;-68
2022/03/21 02:29:56;;;;;;;12.15;6.88;;;;;;;;;;5053038;28;20037;-68
2022/03/21 02:33:03;;;;;;;8.65;5.88;;;;;;;;;;5052813;28;20068;-68
2022/03/21 02:36:08;;;;;;;8.73;6.53;;;;;;;;;;5053081;28;20056;-68
2022/03/21 02:39:12;;;;;;;9.45;6.10;;;;;;;;;;5052938;28;20033;-68
2022/03/21 02:42:17;;;;;;;11.75;6.03;;;;;;;;;;5051960;28;20037;-68
2022/03/21 02:45:21;;;;;;;10.23;6.70;;;;;;;;;;5052656;28;20412;-68
2022/03/21 02:48:25;;;;;;;8.48;6.72;;;;;;;;;;5052195;28;20039;-68
2022/03/21 02:51:30;;;;;;;10.38;6.47;;;;;;;;;;5052559;28;20036;-68
2022/03/21 02:54:34;;;;;;;9.82;6.72;;;;;;;;;;5051841;28;20056;-68
2022/03/21 02:57:38;;;;;;;9.80;7.50;;;;;;;;;;5052768;28;20037;-68
2022/03/21 03:00:43;;;;;;;13.48;8.07;;;;;;;;;;5052816;28;20033;-67
2022/03/21 03:03:48;;;;;;;12.90;7.72;;;;;;;;;;5052150;28;20512;-68
2022/03/21 03:06:52;;;;;;;9.88;7.03;;;;;;;;;;5052235;28;20052;-68
2022/03/21 03:09:56;;;;;;;10.02;6.10;;;;;;;;;;5052327;28;20040;-68
2022/03/21 03:13:01;;;;;;;11.13;6.68;;;;;;;;;;5052419;28;20048;-68
2022/03/21 03:16:05;;;;;;;10.20;5.95;;;;;;;;;;5051996;28;20056;-68
2022/03/21 03:19:09;;;;;;;12.45;7.13;;;;;;;;;;5052219;28;20044;-68
2022/03/21 03:22:14;;;;;;;11.02;7.00;;;;;;;;;;5052245;28;20059;-68
2022/03/21 03:25:18;;;;;;;9.50;6.38;;;;;;;;;;5051770;28;20082;-68
2022/03/21 03:28:22;;;;;;;12.48;6.57;;;;;;;;;;5051826;28;20489;-68
2022/03/21 03:31:27;;;;;;;8.98;6.65;;;;;;;;;;5051860;28;20424;-69
2022/03/21 03:34:33;;;;;;;10.55;7.05;;;;;;;;;;5051533;28;20374;-68
2022/03/21 03:37:37;;;;;;;10.23;7.00;;;;;;;;;;5051759;28;20056;-68
2022/03/21 03:40:43;;;;;;;12.27;6.55;;;;;;;;;;5050990;28;20040;-68
2022/03/21 03:43:47;;;;;;;13.05;7.10;;;;;;;;;;5051629;28;20048;-68
2022/03/21 03:46:52;;;;;;;15.00;7.72;;;;;;;;;;5051771;28;20072;-68
2022/03/21 03:49:58;;;;;;;11.88;7.47;;;;;;;;;;5051553;28;20232;-69
2022/03/21 03:53:02;;;;;;;12.00;6.65;;;;;;;;;;5051345;28;20064;-68
2022/03/21 03:56:07;;;;;;;11.40;7.32;;;;;;;;;;5051632;28;20044;-68
2022/03/21 03:59:11;;;;;;;14.10;7.47;;;;;;;;;;5051626;28;20048;-68
2022/03/21 04:02:15;;;;;;;10.48;7.13;;;;;;;;;;5051524;28;20048;-68
2022/03/21 04:05:20;;;;;;;10.18;7.32;;;;;;;;;;5051279;28;20056;-68
2022/03/21 04:08:25;;;;;;;12.00;7.65;;;;;;;;;;5050641;28;20056;-68
2022/03/21 04:11:29;;;;;;;12.32;8.07;;;;;;;;;;5051216;28;20044;-68
2022/03/21 04:14:34;;;;;;;12.90;7.97;;;;;;;;;;5051601;28;20051;-68
2022/03/21 04:17:38;;;;;;;12.60;8.07;;;;;;;;;;5051397;28;20060;-68
2022/03/21 04:20:42;;;;;;;17.17;7.80;;;;;;;;;;5051115;28;20040;-69
2022/03/21 04:23:47;;;;;;;13.98;8.85;;;;;;;;;;5051177;28;20044;-69
2022/03/21 04:26:51;;;;;;;13.00;8.15;;;;;;;;;;5050862;28;20507;-68
2022/03/21 04:29:55;;;;;;;9.48;7.82;;;;;;;;;;5051003;28;20040;-68
2022/03/21 04:32:59;;;;;;;13.85;8.82;;;;;;;;;;5051047;28;20036;-68
2022/03/21 04:36:04;;;;;;;12.57;8.30;;;;;;;;;;5051061;28;20040;-68
2022/03/21 04:39:08;;;;;;;10.85;7.63;;;;;;;;;;5049953;28;20049;-68
2022/03/21 04:42:12;;;;;;;13.63;8.05;;;;;;;;;;5051035;28;20052;-68
2022/03/21 04:45:17;;;;;;;12.15;7.90;;;;;;;;;;5049892;28;20047;-68
2022/03/21 04:48:21;;;;;;;15.77;8.07;;;;;;;;;;5050098;28;20044;-68
2022/03/21 04:51:25;;;;;;;14.18;8.10;;;;;;;;;;5050475;28;20401;-69
2022/03/21 04:54:30;;;;;;;14.77;7.93;;;;;;;;;;5050886;28;20056;-68
2022/03/21 04:57:35;;;;;;;21.60;11.65;;;;;;;;;;5049630;28;20508;-69
2022/03/21 05:00:39;;;;;;;21.83;12.18;;;;;;;;;;5050747;28;20508;-69
2022/03/21 05:03:44;;;;;;;18.45;9.02;;;;;;;;;;5050848;28;20111;-67
2022/03/21 05:06:48;;;;;;;16.50;9.95;;;;;;;;;;5053662;28;20416;-68
2022/03/21 05:09:53;;;;;;;14.63;7.70;;;;;;;;;;5054732;28;20207;-68
2022/03/21 05:12:57;;;;;;;13.63;8.32;;;;;;;;;;5054516;28;20044;-68
2022/03/21 05:16:01;;;;;;;13.32;7.20;;;;;;;;;;5054371;28;20052;-68
2022/03/21 05:19:07;;;;;;;13.98;8.20;;;;;;;;;;5054683;28;20044;-68
2022/03/21 05:22:11;;;;;;;9.27;7.35;;;;;;;;;;5054544;28;20056;-68
2022/03/21 05:32:00;;;;;;;13.75;7.72;;;;;;;;;;5053685;28;20055;-68
2022/03/21 05:38:30;;;;;;;12.10;7.57;;;;;;;;;;5054230;28;20048;-68
2022/03/21 05:41:33;;;;;;;21.52;8.23;;;;;;;;;;5053881;28;20397;-68
2022/03/21 05:44:37;;;;;;;11.52;8.10;;;;;;;;;;5053828;28;20064;-68
2022/03/21 05:51:12;;;;;;;13.52;8.02;;;;;;;;;;5055776;28;20052;-70
2022/03/21 05:54:17;;;;;;;19.27;7.95;;;;;;;;;;5053787;28;20511;-69
2022/03/21 05:57:21;;;;;;;14.77;8.45;;;;;;;;;;5053780;28;20040;-69
2022/03/21 06:00:26;;;;;;;15.50;8.77;;;;;;;;;;5053659;28;20051;-69
2022/03/21 06:03:30;;;;;;;15.30;9.10;;;;;;;;;;5053742;28;20051;-69
2022/03/21 06:06:34;;;;;;;12.80;8.70;;;;;;;;;;5053757;28;20044;-70
2022/03/21 06:09:38;;;;;;;14.45;8.48;;;;;;;;;;5053508;28;20417;-69
2022/03/21 06:12:43;;;;;;;18.10;9.55;;;;;;;;;;5052722;28;20049;-69
2022/03/21 06:15:48;;;;;;;17.08;8.02;;;;;;;;;;5051799;28;20103;-69
2022/03/21 06:18:52;;;;;;;15.07;7.53;;;;;;;;;;5053118;28;20036;-69
2022/03/21 06:21:56;;;;;;;13.52;8.02;;;;;;;;;;5053041;28;20138;-69
2022/03/21 06:25:01;;;;;;;21.38;8.27;;;;;;;;;;5053150;28;20052;-69
2022/03/21 06:28:05;;;;;;;12.02;7.70;;;;;;;;;;5053394;28;20043;-69
2022/03/21 06:31:10;;;;;;;13.38;7.63;;;;;;;;;;5052811;28;20052;-69
2022/03/21 06:34:14;;;;;;;12.23;7.65;;;;;;;;;;5052942;28;20044;-69
2022/03/21 06:37:19;;;;;;;18.55;7.45;;;;;;;;;;5053135;28;20047;-72
2022/03/21 06:40:24;;;;;;;16.40;8.40;;;;;;;;;;5052250;28;20044;-72
2022/03/21 06:43:28;;;;;;;16.08;7.30;;;;;;;;;;5051982;28;20048;-72
2022/03/21 06:46:33;;;;;;;20.50;7.68;;;;;;;;;;5052717;28;20044;-72
2022/03/21 06:49:37;;;;;;;34.67;8.52;;;;;;;;;;5052828;28;20040;-72
2022/03/21 06:52:44;;;;;;;18.02;8.00;;;;;;;;;;5052316;28;20059;-73
2022/03/21 06:55:48;;;;;;;16.00;9.02;;;;;;;;;;5053000;28;20052;-74
2022/03/21 06:58:53;;;;;;;25.38;8.40;;;;;;;;;;5051682;28;20042;-75
2022/03/21 07:01:57;;;;;;;23.60;10.93;;;;;;;;;;5040235;28;20040;-73
2022/03/21 07:05:03;;;;;;;25.30;9.73;;;;;;;;;;5052218;28;20407;-75
2022/03/21 07:08:08;;;;;;;17.10;8.75;;;;;;;;;;5051824;28;20072;-76
2022/03/21 07:11:12;;;;;;;15.90;8.40;;;;;;;;;;5052285;28;20044;-75
2022/03/21 07:14:16;;;;;;;15.60;8.57;;;;;;;;;;5051896;28;20052;-75
2022/03/21 07:17:21;;;;;;;15.00;8.65;;;;;;;;;;5052523;28;20064;-78
2022/03/21 07:20:26;;;;;;;15.43;8.18;;;;;;;;;;5052646;28;20048;-75
2022/03/21 07:23:30;;;;;;;11.63;7.55;;;;;;;;;;5052853;28;20484;-78
2022/03/21 07:26:36;;;;;;;12.80;7.97;;;;;;;;;;5052579;28;20085;-76
2022/03/21 07:29:40;;;;;;;12.65;7.50;;;;;;;;;;5052635;28;20036;-72
2022/03/21 07:32:45;;;;;;;17.55;7.97;;;;;;;;;;5052077;28;20044;-72
2022/03/21 07:35:49;;;;;;;23.98;11.50;;;;;;;;;;5052048;28;20048;-75
2022/03/21 07:38:53;;;;;;;26.30;10.57;;;;;;;;;;5052151;28;20048;-72
2022/03/21 07:42:00;;;;;;;15.50;8.57;;;;;;;;;;5050784;28;20040;-72
2022/03/21 07:48:28;;;;;;;15.73;9.07;;;;;;;;;;5051464;28;20369;-70
2022/03/21 07:51:32;;;;;;;21.83;8.80;;;;;;;;;;5051813;28;20067;-71
2022/03/21 07:54:37;;;;;;;15.02;9.70;;;;;;;;;;5051689;28;20432;-75
2022/03/21 07:57:41;;;;;;;13.73;8.52;;;;;;;;;;5051001;28;20044;-71
2022/03/21 08:00:45;;;;;;;15.25;8.85;;;;;;;;;;5051811;28;20404;-74
2022/03/21 08:03:50;;;;;;;14.93;9.20;;;;;;;;;;5051826;28;20041;-74
2022/03/21 08:06:57;;;;;;;15.13;9.27;;;;;;;;;;5051526;28;20056;-74
2022/03/21 08:10:05;;;;;;;20.02;9.55;;;;;;;;;;5051287;28;20059;-71
2022/03/21 08:13:16;;;;;;;26.25;11.75;;;;;;;;;;5051664;28;20044;-79
2022/03/21 08:16:21;;;;;;;27.40;10.00;;;;;;;;;;5051082;28;20651;-76
2022/03/21 08:19:26;;;;;;;15.75;8.90;;;;;;;;;;5051295;28;20048;-78
2022/03/21 08:22:30;;;;;;;13.15;10.00;;;;;;;;;;5051557;28;20036;-78
2022/03/21 08:25:35;;;;;;;18.92;10.18;;;;;;;;;;5050834;28;20060;-80
2022/03/21 08:28:39;;;;;;;17.13;10.88;;;;;;;;;;5051199;28;20051;-80
2022/03/21 08:31:43;;;;;;;16.63;9.98;;;;;;;;;;5051808;28;20059;-83
2022/03/21 08:34:47;;;;;;;16.88;10.30;;;;;;;;;;5050323;28;20549;-82
2022/03/21 08:37:52;;;;;;;10.82;7.75;;;;;;;;;;5050522;28;20036;-79
2022/03/21 08:40:57;;;;;;;12.25;8.30;;;;;;;;;;5049788;28;20424;-78
2022/03/21 08:44:02;;;;;;;11.63;7.22;;;;;;;;;;5050940;28;20397;-79
2022/03/21 08:47:07;;;;;;;9.50;7.43;;;;;;;;;;5050358;28;20056;-77
2022/03/21 08:50:12;;;;;;;15.07;9.98;;;;;;;;;;5051275;28;20040;-78
2022/03/21 08:53:17;;;;;;;12.27;7.22;;;;;;;;;;5050329;28;20500;-75
2022/03/21 08:56:22;;;;;;;8.93;6.63;;;;;;;;;;5050337;28;20048;-75
2022/03/21 08:59:26;;;;;;;10.07;7.38;;;;;;;;;;5050679;28;20041;-74
2022/03/21 09:02:31;;;;;;;8.88;6.60;;;;;;;;;;5050590;28;20051;-76
2022/03/21 09:05:35;;;;;;;12.88;7.10;;;;;;;;;;5050971;28;20049;-81
2022/03/21 09:08:42;;;;;;;15.20;7.25;;;;;;;;;;5051180;28;20048;-78
2022/03/21 09:11:46;;;;;;;11.13;6.30;;;;;;;;;;5050667;28;20048;-72
2022/03/21 09:14:51;;;;;;;15.95;7.50;;;;;;;;;;5049366;28;20511;-78
2022/03/21 09:17:55;;;;;;;10.68;7.20;;;;;;;;;;5049930;28;20056;-76
2022/03/21 09:21:00;;;;;;;14.85;8.25;;;;;;;;;;5051152;28;20052;-79
2022/03/21 09:24:04;;;;;;;11.02;7.05;;;;;;;;;;5050741;28;20045;-77
2022/03/21 09:27:10;;;;;;;8.90;6.45;;;;;;;;;;5050214;28;20052;-76
2022/03/21 09:30:15;;;;;;;10.20;6.85;;;;;;;;;;5049055;28;20037;-69
2022/03/21 09:33:19;;;;;;;11.48;7.10;;;;;;;;;;5049815;28;20044;-77
2022/03/21 09:36:24;;;;;;;9.48;6.95;;;;;;;;;;5050211;28;20060;-74
2022/03/21 09:39:28;;;;;;;13.73;8.15;;;;;;;;;;5050103;28;20373;-71
2022/03/21 09:42:36;;;;;;;18.23;9.35;;;;;;;;;;5050213;28;20040;-71
2022/03/21 09:45:41;;;;;;;13.02;7.32;;;;;;;;;;5050041;28;20052;-72
2022/03/21 09:48:49;;;;;;;13.45;8.40;;;;;;;;;;5050311;28;20049;-75
2022/03/21 09:51:53;;;;;;;12.38;7.32;;;;;;;;;;5053724;28;20130;-77
2022/03/21 09:54:57;;;;;;;10.20;7.28;;;;;;;;;;5053814;28;20059;-72
2022/03/21 09:58:02;;;;;;;8.27;6.68;;;;;;;;;;5054032;28;20052;-71
2022/03/21 10:01:06;;;;;;;9.57;6.47;;;;;;;;;;5053411;28;20370;-72
2022/03/21 10:04:10;;;;;;;9.50;7.32;;;;;;;;;;5054524;28;20049;-83
2022/03/21 10:07:16;;;;;;;8.45;6.13;;;;;;;;;;5054480;28;20540;-79
2022/03/21 10:10:20;;;;;;;11.90;6.68;;;;;;;;;;5054610;28;20037;-81
2022/03/21 10:13:30;;;;;;;10.05;6.55;;;;;;;;;;5055054;28;20048;-79
2022/03/21 10:16:34;;;;;;;9.15;6.65;;;;;;;;;;5053444;28;20048;-81
2022/03/21 10:19:49;;;;;;;10.18;6.90;;;;;;;;;;5052810;28;20045;-78
2022/03/21 10:22:53;;;;;;;10.95;6.53;;;;;;;;;;5053580;28;20040;-78
2022/03/21 10:25:57;;;;;;;19.10;7.25;;;;;;;;;;5050402;28;20060;-77
2022/03/21 10:29:07;;;;;;;14.45;7.35;;;;;;;;;;5048948;28;20048;-79
2022/03/21 10:32:11;;;;;;;10.60;6.28;;;;;;;;;;5049817;28;20060;-75
2022/03/21 10:35:17;;;;;;;18.55;8.02;;;;;;;;;;5050769;28;20047;-77
2022/03/21 10:38:40;;;;;;;13.07;7.13;;;;;;;;;;5049865;28;20044;-78
2022/03/21 10:41:44;;;;;;;13.95;6.38;;;;;;;;;;5051060;28;20052;-77
2022/03/21 10:44:56;;;;;;;13.23;7.00;;;;;;;;;;5053026;28;20052;-78
2022/03/21 10:48:00;;;;;;;22.23;8.10;;;;;;;;;;5052173;28;20044;-79
2022/03/21 10:51:05;;;;;;;26.75;7.90;;;;;;;;;;5052983;28;20036;-78
2022/03/21 10:54:09;;;;;;;18.45;8.35;;;;;;;;;;5053074;28;20051;-79
2022/03/21 10:57:33;;;;;;;11.65;7.13;;;;;;;;;;5052804;28;20044;-79
2022/03/21 11:00:37;;;;;;;15.75;6.97;;;;;;;;;;5052497;28;20052;-77
2022/03/21 11:03:43;;;;;;;13.18;7.00;;;;;;;;;;5052890;28;20048;-80
2022/03/21 11:06:47;;;;;;;10.35;7.30;;;;;;;;;;5053365;28;20626;-82
2022/03/21 11:09:51;;;;;;;10.35;7.15;;;;;;;;;;5052431;28;20044;-77
2022/03/21 11:12:57;;;;;;;19.25;8.32;;;;;;;;;;5052481;28;20409;-74
2022/03/21 11:16:01;;;;;;;14.27;8.23;;;;;;;;;;5052295;28;20220;-81
2022/03/21 11:19:07;;;;;;;15.65;8.20;;;;;;;;;;5052377;28;20441;-78
2022/03/21 11:22:12;;;;;;;15.25;9.25;;;;;;;;;;5050784;28;20048;-81
2022/03/21 11:25:17;;;;;;;11.30;8.50;;;;;;;;;;5052142;28;20055;-77
2022/03/21 11:28:37;;;;;;;12.18;7.00;;;;;;;;;;5051524;28;20051;-79
2022/03/21 11:31:51;;;;;;;13.07;8.50;;;;;;;;;;5050396;28;20218;-78
2022/03/21 11:34:55;;;;;;;11.75;7.78;;;;;;;;;;5050285;28;20048;-79
2022/03/21 11:38:21;;;;;;;14.88;7.88;;;;;;;;;;5050389;28;20381;-80
2022/03/21 11:41:26;;;;;;;11.95;5.88;;;;;;;;;;5050118;28;20040;-79
2022/03/21 11:44:31;;;;;;;13.10;6.50;;;;;;;;;;5050020;28;20496;-80
2022/03/21 11:47:35;;;;;;;9.43;6.60;;;;;;;;;;5051910;28;20052;-77
2022/03/21 11:50:39;;;;;;;11.77;7.38;;;;;;;;;;5051816;28;20037;-79
2022/03/21 11:53:51;;;;;;;12.05;6.60;;;;;;;;;;5051823;28;20495;-82
2022/03/21 11:57:06;;;;;;;14.25;6.82;;;;;;;;;;5051693;28;20048;-80
2022/03/21 12:00:16;;;;;;;9.30;6.35;;;;;;;;;;5051691;28;20044;-79
2022/03/21 12:03:26;;;;;;;11.45;6.75;;;;;;;;;;5050940;28;20033;-80
2022/03/21 12:06:31;;;;;;;15.70;7.60;;;;;;;;;;5051408;28;20064;-79
2022/03/21 12:09:46;;;;;;;9.68;7.10;;;;;;;;;;5051497;28;20512;-78
2022/03/21 12:12:51;;;;;;;10.45;5.85;;;;;;;;;;5051302;28;20068;-80
2022/03/21 12:15:54;;;;;;;12.05;6.72;;;;;;;;;;5050936;28;20436;-79
2022/03/21 12:19:03;;;;;;;9.07;6.35;;;;;;;;;;5051170;28;20345;-79
2022/03/21 12:22:25;;;;;;;8.88;5.57;;;;;;;;;;5038715;28;20037;-79
2022/03/21 12:25:29;;;;;;;10.88;6.13;;;;;;;;;;5051041;28;20041;-81
2022/03/21 12:32:35;;;;;;;8.73;6.13;;;;;;;;;;5050964;28;20044;-81
2022/03/21 12:35:40;;;;;;;13.23;6.05;;;;;;;;;;5037036;28;20044;-78
2022/03/21 12:38:44;;;;;;;9.57;5.90;;;;;;;;;;5048786;28;20048;-79
2022/03/21 12:41:50;;;;;;;8.95;5.65;;;;;;;;;;5051080;28;20041;-79
2022/03/21 12:44:54;;;;;;;9.05;5.95;;;;;;;;;;5050955;28;20124;-79
2022/03/21 12:48:04;;;;;;;9.77;5.75;;;;;;;;;;5051157;28;20382;-77
2022/03/21 12:51:09;;;;;;;7.95;5.75;;;;;;;;;;5050941;28;20037;-80
2022/03/21 12:54:14;;;;;;;7.85;5.88;;;;;;;;;;5050734;28;20033;-78
2022/03/21 12:57:18;;;;;;;8.40;5.47;;;;;;;;;;5050967;28;20033;-74
2022/03/21 13:00:26;;;;;;;7.93;5.50;;;;;;;;;;5050694;28;20033;-80
2022/03/21 13:03:30;;;;;;;9.68;5.55;;;;;;;;;;5050154;28;20366;-77
2022/03/21 13:13:22;;;;;;;8.68;5.60;;;;;;;;;;5050948;28;20037;-75
2022/03/21 13:16:28;;;;;;;9.52;6.28;;;;;;;;;;5050692;28;20056;-69
2022/03/21 13:19:37;;;;;;;8.25;6.05;;;;;;;;;;5050568;28;20036;-76
2022/03/21 13:22:41;;;;;;;9.05;6.00;;;;;;;;;;5050747;28;20037;-70
2022/03/21 13:25:46;;;;;;;12.35;6.80;;;;;;;;;;5052289;28;20037;-70
2022/03/21 13:28:52;;;;;;;13.95;7.25;;;;;;;;;;5054200;28;20051;-75
2022/03/21 13:31:56;;;;;;;8.52;6.22;;;;;;;;;;5054341;28;20534;-71
2022/03/21 13:35:00;;;;;;;12.77;6.57;;;;;;;;;;5054345;28;20037;-72
2022/03/21 13:38:05;;;;;;;6.82;6.07;;;;;;;;;;5053307;28;20046;-73
2022/03/21 13:41:17;;;;;;;8.25;5.97;;;;;;;;;;5054232;28;20041;-72
2022/03/21 13:44:22;;;;;;;13.30;7.55;;;;;;;;;;5054226;28;20381;-73
2022/03/21 13:47:27;;;;;;;9.50;6.85;;;;;;;;;;5053987;28;20535;-72
2022/03/21 13:50:38;;;;;;;8.73;6.20;;;;;;;;;;5053785;28;20033;-72
2022/03/21 13:53:43;;;;;;;11.02;5.95;;;;;;;;;;5054160;28;20048;-72
2022/03/21 13:56:50;;;;;;;13.18;7.43;;;;;;;;;;5053050;28;20048;-71
2022/03/21 14:00:15;;;;;;;13.75;6.80;;;;;;;;;;5053653;28;20498;-71
2022/03/21 14:03:33;;;;;;;8.98;6.70;;;;;;;;;;5053723;28;20048;-72
2022/03/21 14:06:54;;;;;;;10.50;6.28;;;;;;;;;;5053534;28;20381;-71
2022/03/21 14:09:58;;;;;;;15.90;7.50;;;;;;;;;;5053340;28;20048;-71
2022/03/21 14:13:02;;;;;;;10.45;6.05;;;;;;;;;;5053433;28;20507;-72
2022/03/21 14:16:07;;;;;;;12.18;6.28;;;;;;;;;;5053395;28;20397;-72
2022/03/21 14:19:17;;;;;;;15.23;6.65;;;;;;;;;;5053340;28;20512;-73
2022/03/21 14:22:21;;;;;;;8.40;5.93;;;;;;;;;;5053402;28;20048;-72
2022/03/21 14:28:48;;;;;;;14.88;6.90;;;;;;;;;;5053565;28;20048;-72
2022/03/21 14:31:52;;;;;;;11.20;6.22;;;;;;;;;;5052883;28;20056;-72
2022/03/21 14:34:57;;;;;;;11.48;6.35;;;;;;;;;;5053033;28;20040;-72
2022/03/21 14:38:01;;;;;;;12.52;6.50;;;;;;;;;;5052143;28;20040;-72
2022/03/21 14:41:05;;;;;;;13.48;6.65;;;;;;;;;;5053060;28;20040;-72
2022/03/21 14:44:10;;;;;;;17.20;7.00;;;;;;;;;;5053178;28;20036;-72
2022/03/21 14:47:14;;;;;;;10.70;6.13;;;;;;;;;;5052894;28;20056;-72
2022/03/21 14:50:19;;;;;;;8.50;6.00;;;;;;;;;;5052778;28;20393;-72
2022/03/21 14:53:24;;;;;;;10.88;6.45;;;;;;;;;;5052835;28;20167;-72
2022/03/21 14:56:30;;;;;;;9.27;6.35;;;;;;;;;;5052113;28;20048;-74
2022/03/21 14:59:34;;;;;;;10.80;6.50;;;;;;;;;;5052771;28;20044;-75
2022/03/21 15:02:39;;;;;;;11.18;6.85;;;;;;;;;;5052475;28;20400;-74
2022/03/21 15:05:43;;;;;;;13.80;7.22;;;;;;;;;;5052601;28;20060;-74
2022/03/21 15:08:48;;;;;;;14.57;6.32;;;;;;;;;;5052203;28;20051;-79
2022/03/21 15:11:53;;;;;;;9.07;6.43;;;;;;;;;;5052298;28;20044;-77
2022/03/21 15:14:58;;;;;;;14.30;6.68;;;;;;;;;;5053031;28;20044;-83
2022/03/21 15:18:03;;;;;;;18.00;7.38;;;;;;;;;;5053017;28;20393;-78
2022/03/21 15:21:07;;;;;;;14.35;6.38;;;;;;;;;;5052479;28;20067;-79
2022/03/21 15:24:11;;;;;;;9.48;6.53;;;;;;;;;;5052788;28;20067;-76
2022/03/21 15:27:16;;;;;;;10.65;6.35;;;;;;;;;;5052200;28;20052;-76
2022/03/21 15:30:20;;;;;;;9.20;6.18;;;;;;;;;;5052318;28;20040;-81
2022/03/21 15:33:24;;;;;;;10.10;5.90;;;;;;;;;;5052713;28;20144;-79
2022/03/21 15:43:14;;;;;;;13.43;9.43;;;;;;;;;;5051910;28;20048;-79
2022/03/21 15:46:19;;;;;;;12.52;7.15;;;;;;;;;;5052613;28;20051;-74
2022/03/21 15:49:23;;;;;;;13.13;7.20;;;;;;;;;;5051726;28;20531;-83
2022/03/21 15:52:27;;;;;;;14.50;9.07;;;;;;;;;;5052266;28;20402;-78
2022/03/21 15:55:35;;;;;;;18.17;11.10;;;;;;;;;;5052546;28;20046;-75
2022/03/21 15:58:39;;;;;;;13.85;7.25;;;;;;;;;;5052058;28;20397;-78
2022/03/21 16:01:43;;;;;;;13.93;8.00;;;;;;;;;;5052199;28;20047;-78
2022/03/21 16:04:48;;;;;;;13.77;7.65;;;;;;;;;;5051147;28;20056;-77
2022/03/21 16:07:52;;;;;;;12.98;6.80;;;;;;;;;;5052870;28;20047;-80
2022/03/21 16:10:57;;;;;;;20.45;6.88;;;;;;;;;;5051670;28;20052;-71
2022/03/21 16:14:02;;;;;;;14.20;9.70;;;;;;;;;;5051948;28;20397;-74
2022/03/21 16:17:07;;;;;;;18.98;9.88;;;;;;;;;;5051210;28;20140;-76
2022/03/21 16:20:13;;;;;;;14.75;9.57;;;;;;;;;;5051060;28;20111;-78
2022/03/21 16:23:17;;;;;;;15.35;7.70;;;;;;;;;;5050883;28;20052;-70
2022/03/21 16:26:21;;;;;;;18.70;8.93;;;;;;;;;;5050558;28;20060;-73
2022/03/21 16:29:26;;;;;;;11.70;8.18;;;;;;;;;;5049980;28;20044;-71
2022/03/21 16:32:30;;;;;;;13.68;8.02;;;;;;;;;;5051134;28;20048;-76
2022/03/21 16:35:35;;;;;;;15.40;8.07;;;;;;;;;;5050493;28;20520;-74
2022/03/21 16:38:41;;;;;;;11.15;7.68;;;;;;;;;;5051182;28;20052;-73
2022/03/21 16:41:45;;;;;;;14.88;8.25;;;;;;;;;;5049800;28;20043;-77
2022/03/21 16:44:51;;;;;;;13.35;8.00;;;;;;;;;;5051338;28;20421;-85
2022/03/21 16:47:58;;;;;;;12.57;8.27;;;;;;;;;;5051172;28;20071;-79
2022/03/21 16:51:02;;;;;;;15.75;7.47;;;;;;;;;;5051262;28;20059;-78
2022/03/21 16:54:07;;;;;;;18.92;7.88;;;;;;;;;;5050914;28;20515;-79
2022/03/21 16:57:12;;;;;;;10.50;5.90;;;;;;;;;;5049902;28;20043;-80
2022/03/21 17:00:17;;;;;;;13.50;7.97;;;;;;;;;;5051101;28;20499;-78
2022/03/21 17:03:23;;;;;;;17.13;8.45;;;;;;;;;;5057265;28;20048;-87
2022/03/21 17:06:28;;;;;;;17.40;9.88;;;;;;;;;;5055104;28;20064;-77
2022/03/21 17:09:33;;;;;;;17.70;9.10;;;;;;;;;;5054876;28;20056;-78
2022/03/21 17:12:38;;;;;;;24.08;16.27;;;;;;;;;;5054179;28;20068;-79
2022/03/21 17:15:42;;;;;;;31.25;14.98;;;;;;;;;;5055443;28;20052;-82
2022/03/21 17:25:16;;;;;;;18.40;12.32;;;;;;;;;;5054528;28;20511;-80
2022/03/21 17:28:21;;;;;;;13.23;8.23;;;;;;;;;;5055051;28;20052;-82
2022/03/21 17:31:26;;;;;;;13.77;9.77;;;;;;;;;;5053466;28;20389;-73
2022/03/21 17:34:30;;;;;;;13.60;9.23;;;;;;;;;;5054662;28;20052;-76
2022/03/21 17:37:34;;;;;;;41.78;23.17;;;;;;;;;;5054719;28;20056;-81
2022/03/21 17:40:39;;;;;;;20.88;9.65;;;;;;;;;;5053845;28;20044;-77
2022/03/21 17:43:43;;;;;;;14.45;9.27;;;;;;;;;;5054459;28;20071;-78
2022/03/21 17:46:48;;;;;;;16.05;10.13;;;;;;;;;;5053537;28;20056;-84
2022/03/21 17:49:53;;;;;;;17.55;9.43;;;;;;;;;;5053919;28;20048;-74
2022/03/21 17:52:57;;;;;;;19.60;11.52;;;;;;;;;;5053420;28;20116;-80
2022/03/21 17:56:05;;;;;;;26.50;15.63;;;;;;;;;;5053741;28;20392;-80
2022/03/21 17:59:08;;;;;;;13.50;8.52;;;;;;;;;;5054463;28;20401;-81
2022/03/21 18:02:13;;;;;;;17.90;7.82;;;;;;;;;;5054635;28;20048;-75
2022/03/21 18:05:18;;;;;;;18.70;12.40;;;;;;;;;;5053320;28;20044;-78
2022/03/21 18:08:23;;;;;;;19.00;11.20;;;;;;;;;;5053550;28;20071;-71
2022/03/21 18:11:28;;;;;;;13.55;8.27;;;;;;;;;;5053216;28;20393;-75
2022/03/21 18:14:33;;;;;;;14.50;8.20;;;;;;;;;;5053683;28;20052;-73
2022/03/21 18:17:37;;;;;;;14.55;8.38;;;;;;;;;;5052652;28;20060;-69
2022/03/21 18:20:44;;;;;;;16.67;9.38;;;;;;;;;;5053728;28;20045;-78
2022/03/21 18:23:48;;;;;;;13.60;8.80;;;;;;;;;;5052997;28;20055;-78
2022/03/21 18:26:52;;;;;;;14.35;8.98;;;;;;;;;;5053729;28;20064;-84
2022/03/21 18:29:57;;;;;;;17.23;11.07;;;;;;;;;;5051954;28;20068;-81
2022/03/21 18:33:02;;;;;;;19.52;9.07;;;;;;;;;;5052626;28;20052;-79
2022/03/21 18:36:07;;;;;;;17.00;10.35;;;;;;;;;;5052778;28;20112;-79
2022/03/21 18:39:12;;;;;;;13.20;8.43;;;;;;;;;;5052498;28;20051;-79
2022/03/21 18:42:16;;;;;;;16.80;9.38;;;;;;;;;;5053591;28;20052;-79
2022/03/21 18:45:23;;;;;;;15.07;9.65;;;;;;;;;;5053305;28;20527;-74
2022/03/21 18:48:28;;;;;;;15.52;9.32;;;;;;;;;;5053082;28;20048;-73
2022/03/21 18:51:32;;;;;;;20.42;9.85;;;;;;;;;;5051946;28;20423;-73
2022/03/21 18:54:37;;;;;;;17.92;9.20;;;;;;;;;;5052556;28;20061;-73
2022/03/21 18:57:42;;;;;;;13.95;8.45;;;;;;;;;;5052184;28;20040;-73
2022/03/21 19:00:47;;;;;;;16.58;9.90;;;;;;;;;;5051294;28;20056;-73
2022/03/21 19:03:52;;;;;;;17.23;9.75;;;;;;;;;;5052306;28;20044;-73